Time;durP1;ratioP1;P1;durP2;ratioP2;P2;SDS_P1;SDS_P2;PMS_P1;PMS_P2;Temp;Humidity;BMP_temperature;BMP_pressure;BME280_temperature;BME280_humidity;BME280_pressure;Samples;Min_cycle;Max_cycle;Signal;HPM_P1;HPM_P2
2022/07/11 00:00:11;;;;;;;2.65;0.50;;;19.00;75.00;;;;;;4933950;29;20048;-77
2022/07/11 00:02:41;;;;;;;1.67;0.60;;;19.00;75.00;;;;;;4951726;28;20111;-77
2022/07/11 00:05:09;;;;;;;2.90;0.63;;;19.00;75.40;;;;;;4937445;28;20099;-77
2022/07/11 00:07:37;;;;;;;2.63;0.50;;;19.00;75.30;;;;;;4920368;29;20106;-77
2022/07/11 00:10:05;;;;;;;4.00;0.60;;;19.00;75.40;;;;;;4961178;28;20079;-77
2022/07/11 00:12:32;;;;;;;1.30;0.50;;;18.90;75.40;;;;;;4965191;28;20059;-77
2022/07/11 00:14:59;;;;;;;2.08;0.45;;;19.00;75.40;;;;;;4951535;28;20051;-77
2022/07/11 00:17:26;;;;;;;1.50;0.40;;;19.00;75.50;;;;;;4940385;28;20583;-77
2022/07/11 00:19:53;;;;;;;2.47;0.40;;;19.00;75.40;;;;;;4955077;28;20055;-77
2022/07/11 00:22:20;;;;;;;1.50;0.40;;;19.00;76.10;;;;;;4951403;28;20154;-79
2022/07/11 00:24:47;;;;;;;1.73;0.32;;;19.00;75.40;;;;;;4935625;29;20051;-79
2022/07/11 00:27:14;;;;;;;0.80;0.35;;;19.00;75.40;;;;;;4958522;28;20133;-79
2022/07/11 00:29:41;;;;;;;3.50;0.70;;;19.10;75.40;;;;;;4935463;29;20052;-79
2022/07/11 00:32:08;;;;;;;1.70;0.40;;;19.10;75.40;;;;;;4920920;29;20055;-80
2022/07/11 00:34:35;;;;;;;3.28;0.60;;;19.10;75.40;;;;;;4959456;28;20135;-80
2022/07/11 00:37:03;;;;;;;2.42;0.38;;;19.10;75.40;;;;;;4950903;29;20051;-80
2022/07/11 00:39:30;;;;;;;2.90;0.50;;;19.10;75.40;;;;;;4951184;28;20082;-80
2022/07/11 00:41:57;;;;;;;1.60;0.68;;;19.10;75.40;;;;;;4960532;28;20052;-80
2022/07/11 00:44:24;;;;;;;1.17;0.50;;;19.10;75.50;;;;;;4923704;28;20047;-77
2022/07/11 00:46:51;;;;;;;3.13;0.80;;;19.10;75.60;;;;;;4956920;28;20084;-77
2022/07/11 00:49:19;;;;;;;1.90;0.55;;;19.00;75.90;;;;;;4919712;29;20046;-77
2022/07/11 00:51:46;;;;;;;1.95;0.52;;;19.00;76.10;;;;;;4934602;29;20035;-77
2022/07/11 00:54:14;;;;;;;1.42;0.30;;;18.90;76.00;;;;;;4934692;29;20044;-77
2022/07/11 00:56:41;;;;;;;1.77;0.40;;;19.00;76.10;;;;;;4923127;28;20515;-77
2022/07/11 00:59:08;;;;;;;3.67;0.47;;;19.00;76.00;;;;;;4952882;28;20146;-77
2022/07/11 01:01:38;;;;;;;2.92;0.65;;;19.00;76.00;;;;;;4963028;28;20043;-77
2022/07/11 01:04:05;;;;;;;2.10;0.40;;;19.00;76.20;;;;;;4937450;29;20094;-77
2022/07/11 01:06:32;;;;;;;3.63;0.82;;;18.90;76.20;;;;;;4935917;29;20122;-77
2022/07/11 01:08:59;;;;;;;1.02;0.50;;;18.90;76.20;;;;;;4950627;28;20126;-77
2022/07/11 01:11:27;;;;;;;2.08;0.40;;;19.00;76.30;;;;;;4934615;28;20048;-77
2022/07/11 01:13:54;;;;;;;2.65;0.50;;;19.00;76.20;;;;;;4934230;28;20500;-77
2022/07/11 01:16:22;;;;;;;1.42;0.40;;;19.00;76.10;;;;;;4936312;29;20094;-77
2022/07/11 01:18:54;;;;;;;1.45;0.30;;;19.00;76.10;;;;;;4959310;28;20035;-77
2022/07/11 01:21:26;;;;;;;1.30;0.40;;;19.10;76.00;;;;;;4918725;29;20060;-77
2022/07/11 01:23:55;;;;;;;1.00;0.30;;;19.00;76.00;;;;;;4939176;29;20043;-77
2022/07/11 01:26:23;;;;;;;0.85;0.30;;;19.00;76.10;;;;;;4934240;29;20142;-77
2022/07/11 01:28:51;;;;;;;0.90;0.28;;;19.00;76.20;;;;;;4923965;28;20131;-77
2022/07/11 01:31:20;;;;;;;1.48;0.30;;;19.00;76.10;;;;;;4950163;28;20055;-77
2022/07/11 01:33:47;;;;;;;1.55;0.40;;;19.00;76.20;;;;;;4954885;28;20079;-77
2022/07/11 01:36:14;;;;;;;0.73;0.22;;;19.10;76.20;;;;;;4951066;28;20048;-77
2022/07/11 01:38:41;;;;;;;0.32;0.20;;;19.10;76.20;;;;;;4950114;29;20039;-77
2022/07/11 01:41:08;;;;;;;0.52;0.30;;;19.10;76.10;;;;;;4943929;28;20048;-77
2022/07/11 01:43:35;;;;;;;1.55;0.20;;;19.10;76.10;;;;;;4943990;28;20048;-78
2022/07/11 01:46:02;;;;;;;0.73;0.30;;;19.00;76.10;;;;;;4934069;29;20047;-77
2022/07/11 01:48:29;;;;;;;1.27;0.28;;;19.00;76.20;;;;;;4952158;28;20551;-77
2022/07/11 01:50:56;;;;;;;0.60;0.28;;;19.00;76.30;;;;;;4950048;28;20071;-77
2022/07/11 01:53:24;;;;;;;1.08;0.30;;;19.00;76.30;;;;;;4933877;29;20047;-77
2022/07/11 01:55:51;;;;;;;0.65;0.25;;;19.00;76.30;;;;;;4949908;28;20055;-77
2022/07/11 01:58:38;;;;;;;0.65;0.20;;;19.00;76.40;;;;;;4949601;29;20464;-77
2022/07/11 02:01:05;;;;;;;2.15;0.20;;;19.00;76.30;;;;;;4934135;29;20156;-77
2022/07/11 02:03:32;;;;;;;0.68;0.20;;;19.00;76.30;;;;;;4922208;28;20056;-77
2022/07/11 02:05:59;;;;;;;0.90;0.30;;;19.00;76.40;;;;;;4952718;28;20095;-77
2022/07/11 02:08:27;;;;;;;1.65;0.20;;;19.00;76.30;;;;;;4941513;29;20039;-77
2022/07/11 02:10:54;;;;;;;1.60;0.28;;;19.00;76.30;;;;;;4967335;28;20050;-77
2022/07/11 02:13:23;;;;;;;1.38;0.40;;;19.00;76.40;;;;;;4945212;29;20067;-77
2022/07/11 02:15:52;;;;;;;1.05;0.28;;;19.00;76.40;;;;;;4944629;28;20047;-77
2022/07/11 02:18:20;;;;;;;0.45;0.20;;;19.00;76.40;;;;;;4942384;29;20112;-77
2022/07/11 02:20:49;;;;;;;1.33;0.28;;;18.90;76.30;;;;;;4940021;28;20111;-77
2022/07/11 02:23:17;;;;;;;3.13;0.20;;;18.90;76.40;;;;;;4956258;28;20099;-77
2022/07/11 02:25:44;;;;;;;0.75;0.20;;;18.90;76.50;;;;;;4955988;29;20480;-77
2022/07/11 02:28:12;;;;;;;2.58;0.30;;;18.90;76.50;;;;;;4956197;29;20086;-77
2022/07/11 02:40:26;;;;;;;0.65;0.20;;;18.80;76.60;;;;;;4978719;24;20062;-78
2022/07/11 02:42:53;;;;;;;1.35;0.20;;;18.70;76.70;;;;;;4762482;30;20051;-78
2022/07/11 02:45:20;;;;;;;1.35;0.15;;;18.70;76.70;;;;;;4793660;29;20081;-78
2022/07/11 02:47:48;;;;;;;1.10;0.10;;;18.70;76.80;;;;;;4792918;29;20111;-78
2022/07/11 02:50:15;;;;;;;1.85;0.20;;;18.70;76.80;;;;;;4776996;30;20047;-78
2022/07/11 02:52:42;;;;;;;0.47;0.20;;;18.70;76.90;;;;;;4798882;29;20050;-78
2022/07/11 02:55:11;;;;;;;1.63;0.40;;;18.70;77.00;;;;;;4779476;30;20055;-78
2022/07/11 02:57:39;;;;;;;0.82;0.30;;;18.70;77.00;;;;;;4776628;30;20496;-78
2022/07/11 03:00:08;;;;;;;0.40;0.20;;;18.70;77.20;;;;;;4791596;30;20078;-78
2022/07/11 03:02:35;;;;;;;0.20;0.20;;;18.70;77.20;;;;;;4791585;29;20553;-78
2022/07/11 03:05:03;;;;;;;1.80;0.20;;;18.70;77.30;;;;;;4793677;29;20073;-78
2022/07/11 03:07:30;;;;;;;0.93;0.20;;;18.60;77.20;;;;;;4807747;29;20130;-78
2022/07/11 03:09:57;;;;;;;0.90;0.20;;;18.70;77.30;;;;;;4798190;29;20397;-78
2022/07/11 03:12:24;;;;;;;1.45;0.20;;;18.70;77.40;;;;;;4784468;29;20059;-78
2022/07/11 03:14:51;;;;;;;0.40;0.30;;;18.60;77.50;;;;;;4763609;30;20078;-78
2022/07/11 03:17:19;;;;;;;1.05;0.30;;;18.60;77.60;;;;;;4771497;29;20090;-78
2022/07/11 03:19:46;;;;;;;0.75;0.20;;;18.60;77.70;;;;;;4764493;30;20052;-78
2022/07/11 03:22:17;;;;;;;0.30;0.20;;;18.50;77.80;;;;;;4758756;30;20047;-78
2022/07/11 03:24:44;;;;;;;0.45;0.10;;;18.50;77.90;;;;;;4745890;30;20083;-78
2022/07/11 03:27:11;;;;;;;1.25;0.20;;;18.50;78.10;;;;;;4771405;30;20048;-78
2022/07/11 03:29:40;;;;;;;0.63;0.30;;;18.50;78.20;;;;;;4773942;30;20412;-78
2022/07/11 03:32:08;;;;;;;1.20;0.17;;;18.40;78.30;;;;;;4815224;29;20055;-78
2022/07/11 03:34:36;;;;;;;1.27;0.20;;;18.40;78.30;;;;;;4759299;30;20066;-78
2022/07/11 03:37:04;;;;;;;0.82;0.30;;;18.40;78.40;;;;;;4773701;30;20055;-78
2022/07/11 03:39:31;;;;;;;2.50;0.20;;;18.40;78.50;;;;;;4775879;30;20063;-78
2022/07/11 03:41:58;;;;;;;1.20;0.30;;;18.40;79.20;;;;;;4772131;30;20501;-78
2022/07/11 03:44:25;;;;;;;0.32;0.20;;;18.30;78.60;;;;;;4757374;30;20551;-78
2022/07/11 03:46:52;;;;;;;0.60;0.22;;;18.30;78.60;;;;;;4745316;30;20051;-78
2022/07/11 03:49:19;;;;;;;0.63;0.20;;;18.30;78.80;;;;;;4748636;29;20112;-78
2022/07/11 03:51:46;;;;;;;0.93;0.20;;;18.30;78.90;;;;;;4742148;30;20094;-78
2022/07/11 03:54:13;;;;;;;1.02;0.20;;;18.30;78.90;;;;;;4757241;30;20060;-78
2022/07/11 03:56:41;;;;;;;1.00;0.30;;;18.20;79.00;;;;;;4793827;29;20523;-78
2022/07/11 03:59:09;;;;;;;0.30;0.20;;;18.20;79.60;;;;;;4770116;30;20489;-80
2022/07/11 04:01:36;;;;;;;0.85;0.30;;;18.30;79.10;;;;;;4770003;30;20514;-79
2022/07/11 04:04:03;;;;;;;0.28;0.20;;;18.30;79.10;;;;;;4757950;30;20067;-78
2022/07/11 04:06:30;;;;;;;0.57;0.20;;;18.30;79.10;;;;;;4793898;29;20094;-78
2022/07/11 04:08:57;;;;;;;0.50;0.22;;;18.30;79.70;;;;;;4752831;30;20143;-80
2022/07/11 04:11:24;;;;;;;1.00;0.40;;;18.30;79.10;;;;;;4740848;30;20102;-80
2022/07/11 04:13:51;;;;;;;0.75;0.20;;;18.20;79.20;;;;;;4784662;29;20104;-80
2022/07/11 04:16:19;;;;;;;1.15;0.20;;;18.20;79.30;;;;;;4740652;30;20048;-80
2022/07/11 04:18:46;;;;;;;0.52;0.20;;;18.10;79.40;;;;;;4758924;30;20048;-80
2022/07/11 04:21:13;;;;;;;0.75;0.20;;;18.10;79.60;;;;;;4747398;30;20043;-80
2022/07/11 04:23:40;;;;;;;0.85;0.28;;;18.10;79.80;;;;;;4775393;29;20068;-80
2022/07/11 04:26:07;;;;;;;3.70;0.40;;;18.00;79.90;;;;;;4769881;30;20048;-80
2022/07/11 04:28:34;;;;;;;0.80;0.30;;;18.00;80.00;;;;;;4769392;29;20052;-80
2022/07/11 04:31:01;;;;;;;1.00;0.55;;;18.00;80.10;;;;;;4772823;30;20083;-80
2022/07/11 04:33:28;;;;;;;1.40;0.30;;;18.10;80.20;;;;;;4740363;30;20500;-80
2022/07/11 04:35:55;;;;;;;0.25;0.20;;;18.00;80.30;;;;;;4782294;29;20096;-80
2022/07/11 04:38:23;;;;;;;0.95;0.30;;;18.10;80.40;;;;;;4780759;30;20500;-80
2022/07/11 04:40:51;;;;;;;0.30;0.20;;;18.10;80.40;;;;;;4754495;30;20139;-80
2022/07/11 04:43:18;;;;;;;0.80;0.30;;;18.10;80.40;;;;;;4760160;30;20204;-80
2022/07/11 04:45:45;;;;;;;0.40;0.20;;;18.10;81.00;;;;;;4740272;30;20495;-81
2022/07/11 04:48:12;;;;;;;1.48;0.30;;;18.10;80.50;;;;;;4756935;30;20052;-80
2022/07/11 04:50:46;;;;;;;0.55;0.40;;;18.10;80.50;;;;;;4789425;29;20130;-80
2022/07/11 04:53:13;;;;;;;0.57;0.30;;;18.10;80.50;;;;;;4764709;30;20047;-80
2022/07/11 04:55:45;;;;;;;0.68;0.20;;;18.10;80.60;;;;;;4740160;30;20109;-80
2022/07/11 04:58:12;;;;;;;0.63;0.30;;;18.10;80.70;;;;;;4763775;29;20055;-80
2022/07/11 05:00:39;;;;;;;1.60;0.10;;;18.10;80.70;;;;;;4757595;30;20075;-80
2022/07/11 05:03:11;;;;;;;0.15;0.10;;;18.10;80.80;;;;;;4734866;30;20075;-80
2022/07/11 05:05:38;;;;;;;0.43;0.20;;;18.10;80.80;;;;;;4739979;30;20055;-80
2022/07/11 05:08:05;;;;;;;0.40;0.20;;;18.10;80.80;;;;;;4754378;30;20052;-80
2022/07/11 05:10:33;;;;;;;0.40;0.20;;;18.10;80.90;;;;;;4776381;29;20059;-80
2022/07/11 05:13:00;;;;;;;0.55;0.20;;;18.20;80.90;;;;;;4768913;30;20059;-80
2022/07/11 05:15:27;;;;;;;1.27;0.20;;;18.20;81.00;;;;;;4772471;30;20066;-80
2022/07/11 05:17:54;;;;;;;0.13;0.10;;;18.20;81.00;;;;;;4759344;30;20097;-80
2022/07/11 05:20:21;;;;;;;2.20;0.30;;;18.20;81.00;;;;;;4773790;30;20475;-80
2022/07/11 05:22:48;;;;;;;0.68;0.20;;;18.30;81.00;;;;;;4754213;30;20413;-80
2022/07/11 05:25:15;;;;;;;0.50;0.28;;;18.30;81.40;;;;;;4763621;30;20113;-80
2022/07/11 05:27:42;;;;;;;0.50;0.20;;;18.30;81.00;;;;;;4775473;29;20048;-80
2022/07/11 05:30:09;;;;;;;0.35;0.20;;;18.40;81.10;;;;;;4739618;30;20058;-80
2022/07/11 05:32:36;;;;;;;0.52;0.25;;;18.30;81.10;;;;;;4768675;30;20055;-80
2022/07/11 05:35:04;;;;;;;0.77;0.30;;;18.30;81.10;;;;;;4739737;30;20059;-80
2022/07/11 05:37:31;;;;;;;1.80;0.40;;;18.30;81.30;;;;;;4770575;30;20124;-80
2022/07/11 05:39:58;;;;;;;0.93;0.30;;;18.30;81.50;;;;;;4777553;29;20132;-80
2022/07/11 05:42:32;;;;;;;0.28;0.20;;;18.30;81.50;;;;;;4771661;30;20047;-80
2022/07/11 05:44:59;;;;;;;0.30;0.20;;;18.30;81.40;;;;;;4786942;29;20039;-80
2022/07/11 05:47:26;;;;;;;1.88;0.30;;;18.40;81.50;;;;;;4798918;29;20059;-80
2022/07/11 05:49:53;;;;;;;0.93;0.30;;;18.40;81.40;;;;;;4739545;30;20147;-80
2022/07/11 05:52:20;;;;;;;1.63;0.22;;;18.50;82.00;;;;;;4768613;30;20063;-80
2022/07/11 05:54:47;;;;;;;0.65;0.30;;;18.60;81.30;;;;;;4756291;30;20052;-80
2022/07/11 05:57:14;;;;;;;0.52;0.20;;;18.60;81.20;;;;;;4773112;30;20094;-80
2022/07/11 05:59:41;;;;;;;0.50;0.30;;;18.70;81.20;;;;;;4775551;29;20064;-80
2022/07/11 06:02:08;;;;;;;0.20;0.10;;;18.70;81.20;;;;;;4770440;29;20052;-80
2022/07/11 06:04:36;;;;;;;0.32;0.30;;;18.70;81.80;;;;;;4743242;30;20408;-81
2022/07/11 06:07:04;;;;;;;0.75;0.22;;;18.80;81.20;;;;;;4783480;29;20139;-81
2022/07/11 06:09:31;;;;;;;0.88;0.30;;;18.80;81.20;;;;;;4768489;30;20109;-83
2022/07/11 06:11:58;;;;;;;0.50;0.20;;;18.80;81.30;;;;;;4753796;30;20055;-83
2022/07/11 06:14:26;;;;;;;0.47;0.10;;;18.80;81.40;;;;;;4769671;30;20052;-84
2022/07/11 06:16:53;;;;;;;0.60;0.20;;;18.80;81.30;;;;;;4771571;30;20051;-81
2022/07/11 06:19:21;;;;;;;0.95;0.20;;;18.80;81.40;;;;;;4766410;30;20052;-80
2022/07/11 06:21:47;;;;;;;0.35;0.17;;;18.70;81.50;;;;;;4753807;30;20083;-84
2022/07/11 06:24:15;;;;;;;0.65;0.10;;;18.80;81.60;;;;;;4770738;30;20052;-83
2022/07/11 06:26:42;;;;;;;0.32;0.10;;;18.80;81.50;;;;;;4744453;30;20048;-82
2022/07/11 06:29:09;;;;;;;0.20;0.10;;;18.80;81.40;;;;;;4753276;30;20079;-86
2022/07/11 06:31:36;;;;;;;0.28;0.10;;;18.80;82.10;;;;;;4783381;29;20509;-83
2022/07/11 06:34:03;;;;;;;1.33;0.10;;;18.80;81.40;;;;;;4750899;30;20056;-83
2022/07/11 06:36:30;;;;;;;0.93;0.10;;;18.80;81.60;;;;;;4776231;29;20086;-83
2022/07/11 06:38:57;;;;;;;0.22;0.10;;;18.90;81.50;;;;;;4759937;30;20055;-86
2022/07/11 06:41:24;;;;;;;0.25;0.10;;;18.80;81.60;;;;;;4745217;30;20086;-82
2022/07/11 06:43:51;;;;;;;0.35;0.10;;;18.60;81.80;;;;;;4743193;30;20048;-80
2022/07/11 06:46:18;;;;;;;0.10;0.08;;;18.60;82.10;;;;;;4765779;30;20053;-84
2022/07/11 06:48:45;;;;;;;0.03;0.00;;;18.70;82.10;;;;;;4783340;29;20055;-80
2022/07/11 06:51:12;;;;;;;0.28;0.10;;;18.80;81.90;;;;;;4767963;30;20425;-80
2022/07/11 06:53:39;;;;;;;0.30;0.10;;;19.00;81.80;;;;;;4771701;29;20130;-79
2022/07/11 06:56:07;;;;;;;0.03;0.00;;;19.10;81.60;;;;;;4771427;30;20497;-79
2022/07/11 06:58:34;;;;;;;0.60;0.00;;;19.20;81.30;;;;;;4763663;30;20566;-80
2022/07/11 07:01:03;;;;;;;1.08;0.10;;;19.20;81.20;;;;;;4743188;30;20462;-80
2022/07/11 07:03:32;;;;;;;0.00;0.00;;;19.30;81.10;;;;;;4772605;30;20071;-80
2022/07/11 07:06:05;;;;;;;0.10;0.03;;;19.40;80.90;;;;;;4742025;30;20044;-80
2022/07/11 07:08:33;;;;;;;0.00;0.00;;;19.50;80.80;;;;;;4756493;30;20056;-80
2022/07/11 07:11:00;;;;;;;0.00;0.00;;;19.50;80.70;;;;;;4766068;30;20044;-80
2022/07/11 07:13:35;;;;;;;0.30;0.05;;;19.60;80.70;;;;;;4747637;30;20050;-79
2022/07/11 07:16:02;;;;;;;0.43;0.10;;;19.70;80.50;;;;;;4756333;30;20052;-80
2022/07/11 07:18:32;;;;;;;0.00;0.00;;;19.80;80.40;;;;;;4771130;30;20046;-80
2022/07/11 07:20:59;;;;;;;0.00;0.00;;;19.90;80.20;;;;;;4776461;29;20481;-80
2022/07/11 07:23:26;;;;;;;0.10;0.00;;;20.00;80.00;;;;;;4781170;29;20047;-80
2022/07/11 07:25:53;;;;;;;0.30;0.10;;;20.10;79.90;;;;;;4757849;30;20142;-80
2022/07/11 07:28:20;;;;;;;0.10;0.00;;;20.10;79.90;;;;;;4774952;30;20051;-80
2022/07/11 07:30:47;;;;;;;0.30;0.10;;;20.10;79.90;;;;;;4766679;30;20115;-80
2022/07/11 07:33:14;;;;;;;0.17;0.00;;;20.10;79.90;;;;;;4744591;30;20078;-80
2022/07/11 07:35:56;;;;;;;0.22;0.10;;;20.20;79.90;;;;;;4760859;29;20090;-80
2022/07/11 07:38:23;;;;;;;0.10;0.00;;;20.10;79.90;;;;;;4743923;30;20055;-79
2022/07/11 07:40:50;;;;;;;0.10;0.00;;;20.10;80.00;;;;;;4777022;29;20095;-80
2022/07/11 07:43:17;;;;;;;0.05;0.00;;;20.20;79.90;;;;;;4780792;29;20519;-80
2022/07/11 07:45:44;;;;;;;0.20;0.10;;;20.30;79.80;;;;;;4759903;30;20148;-80
2022/07/11 07:48:11;;;;;;;0.00;0.00;;;20.20;79.60;;;;;;4741782;30;20048;-80
2022/07/11 07:50:38;;;;;;;0.10;0.00;;;20.20;79.60;;;;;;4773472;30;20421;-80
2022/07/11 07:53:08;;;;;;;2.42;0.10;;;20.10;79.70;;;;;;4770310;29;20115;-81
2022/07/11 07:55:35;;;;;;;0.10;0.00;;;20.20;79.70;;;;;;4770045;30;20056;-81
2022/07/11 07:58:02;;;;;;;0.10;0.00;;;20.10;80.20;;;;;;4778651;30;20089;-80
2022/07/11 08:03:15;;;;;;;0.08;0.00;;;19.90;79.80;;;;;;4762319;29;20070;-81
2022/07/11 08:05:42;;;;;;;0.30;0.00;;;19.90;80.10;;;;;;4741250;30;20047;-80
2022/07/11 08:08:10;;;;;;;0.00;0.00;;;20.00;80.10;;;;;;4785280;29;20094;-81
2022/07/11 08:10:37;;;;;;;0.00;0.00;;;20.30;79.70;;;;;;4776202;29;20052;-81
2022/07/11 08:13:04;;;;;;;0.17;0.00;;;20.60;78.90;;;;;;4784939;29;20056;-81
2022/07/11 08:15:30;;;;;;;0.32;0.00;;;20.80;78.40;;;;;;4770210;29;20466;-81
2022/07/11 08:17:57;;;;;;;0.10;0.00;;;20.80;78.10;;;;;;4740874;30;20052;-81
2022/07/11 08:20:24;;;;;;;0.03;0.00;;;20.90;78.10;;;;;;4742836;30;20055;-80
2022/07/11 08:22:51;;;;;;;0.10;0.00;;;20.90;78.10;;;;;;4763940;29;20091;-80
2022/07/11 08:25:18;;;;;;;0.10;0.03;;;21.00;78.10;;;;;;4778741;30;20047;-80
2022/07/11 08:27:45;;;;;;;0.10;0.00;;;21.00;77.90;;;;;;4757694;30;20101;-79
2022/07/11 08:30:12;;;;;;;0.32;0.10;;;21.00;77.70;;;;;;4775673;29;20047;-78
2022/07/11 08:32:40;;;;;;;0.00;0.00;;;21.10;77.60;;;;;;4777088;30;20056;-78
2022/07/11 08:35:11;;;;;;;0.05;0.00;;;21.10;77.60;;;;;;4781717;29;20423;-81
2022/07/11 08:37:38;;;;;;;0.10;0.00;;;21.10;77.50;;;;;;4784939;29;20055;-79
2022/07/11 08:40:06;;;;;;;0.10;0.10;;;21.10;77.40;;;;;;4760453;30;20059;-78
2022/07/11 08:42:42;;;;;;;0.10;0.10;;;21.10;77.40;;;;;;4770013;30;20100;-78
2022/07/11 08:45:14;;;;;;;0.00;0.00;;;21.10;77.40;;;;;;4769301;30;20058;-78
2022/07/11 08:47:42;;;;;;;0.00;0.00;;;21.20;77.10;;;;;;4786378;29;20048;-78
2022/07/11 08:50:10;;;;;;;0.00;0.00;;;21.30;76.80;;;;;;4754580;30;20497;-78
2022/07/11 08:52:38;;;;;;;0.15;0.10;;;21.30;76.70;;;;;;4787606;29;20420;-78
2022/07/11 08:55:09;;;;;;;0.00;0.00;;;21.40;76.70;;;;;;4742664;30;20047;-78
2022/07/11 08:57:37;;;;;;;0.00;0.00;;;21.30;77.20;;;;;;4767271;30;20175;-78
2022/07/11 09:00:11;;;;;;;0.20;0.10;;;21.30;76.70;;;;;;4776063;29;20182;-78
2022/07/11 09:02:43;;;;;;;0.90;0.05;;;21.20;76.60;;;;;;4789662;29;20108;-78
2022/07/11 09:05:11;;;;;;;0.20;0.10;;;21.00;76.90;;;;;;4766666;30;20048;-78
2022/07/11 09:07:49;;;;;;;0.10;0.08;;;20.80;77.20;;;;;;4755987;30;20055;-79
2022/07/11 09:10:17;;;;;;;0.00;0.00;;;20.70;77.40;;;;;;4766924;30;20118;-78
2022/07/11 09:13:02;;;;;;;0.20;0.00;;;20.60;77.70;;;;;;4772701;30;20058;-78
2022/07/11 09:15:32;;;;;;;0.20;0.10;;;20.60;77.80;;;;;;4751520;30;20780;-79
2022/07/11 09:18:00;;;;;;;0.30;0.10;;;20.60;77.90;;;;;;4767727;30;20062;-79
2022/07/11 09:25:19;;;;;;;0.22;0.10;;;20.60;77.90;;;;;;4770635;30;20105;-79
2022/07/11 09:26:06;;;;;;;;;;;20.70;77.70;;;;;;4783426;29;20066;-81
2022/07/11 09:28:33;;;;;;;0.22;0.10;;;20.70;77.60;;;;;;4765735;29;19961;-78
2022/07/11 09:31:15;;;;;;;0.17;0.05;;;20.70;77.50;;;;;;4774901;29;20059;-80
2022/07/11 09:33:58;;;;;;;0.20;0.00;;;20.90;77.20;;;;;;4773282;29;20062;-80
2022/07/11 09:36:36;;;;;;;0.10;0.00;;;20.90;76.90;;;;;;4761617;29;20143;-79
2022/07/11 09:39:04;;;;;;;0.00;0.00;;;20.90;76.80;;;;;;4791014;29;20055;-80
2022/07/11 09:41:35;;;;;;;0.00;0.00;;;20.90;76.90;;;;;;4761986;30;20060;-79
2022/07/11 09:44:12;;;;;;;0.25;0.10;;;21.00;77.00;;;;;;4752132;30;20471;-81
2022/07/11 09:46:42;;;;;;;0.10;0.10;;;20.90;76.90;;;;;;4737446;30;20052;-79
2022/07/11 09:49:44;;;;;;;0.20;0.10;;;20.80;77.10;;;;;;4769293;29;20129;-80
2022/07/11 09:52:20;;;;;;;0.20;0.10;;;20.60;77.40;;;;;;4752415;30;20052;-81
2022/07/11 09:55:00;;;;;;;0.20;0.10;;;20.40;77.70;;;;;;4777187;29;20101;-81
2022/07/11 09:57:34;;;;;;;0.15;0.10;;;20.30;78.60;;;;;;4752428;30;20047;-80
2022/07/11 10:00:11;;;;;;;0.40;0.20;;;20.30;78.10;;;;;;4783080;30;20127;-81
2022/07/11 10:02:39;;;;;;;0.35;0.20;;;20.30;78.10;;;;;;4768059;30;20517;-81
2022/07/11 10:05:06;;;;;;;0.20;0.10;;;20.30;78.20;;;;;;4741317;30;20146;-81
2022/07/11 10:07:33;;;;;;;0.28;0.10;;;20.40;78.70;;;;;;4777195;29;20121;-81
2022/07/11 10:10:02;;;;;;;0.38;0.10;;;20.50;77.80;;;;;;4777089;30;20060;-81
2022/07/11 10:12:31;;;;;;;0.45;0.10;;;20.70;77.60;;;;;;4783086;29;20109;-81
2022/07/11 10:15:06;;;;;;;0.20;0.10;;;20.80;77.20;;;;;;4769423;29;20129;-81
2022/07/11 10:18:05;;;;;;;0.30;0.10;;;20.90;77.00;;;;;;4778115;29;20055;-81
2022/07/11 10:20:45;;;;;;;0.15;0.10;;;21.10;76.50;;;;;;4768219;30;20051;-81
2022/07/11 10:23:39;;;;;;;0.80;0.10;;;21.20;76.40;;;;;;4773949;30;20091;-81
2022/07/11 10:26:36;;;;;;;0.20;0.10;;;21.40;75.90;;;;;;4782246;29;20039;-81
2022/07/11 10:29:14;;;;;;;0.35;0.10;;;21.50;75.80;;;;;;4787540;30;20082;-80
2022/07/11 10:31:41;;;;;;;0.17;0.10;;;21.60;75.40;;;;;;4795748;29;20059;-80
2022/07/11 10:34:29;;;;;;;0.30;0.10;;;21.60;75.30;;;;;;4753790;30;20056;-80
2022/07/11 10:37:04;;;;;;;0.30;0.10;;;21.80;75.10;;;;;;4771652;30;20110;-80
2022/07/11 10:39:34;;;;;;;0.40;0.10;;;21.90;74.80;;;;;;4776237;29;20060;-80
2022/07/11 10:42:04;;;;;;;0.30;0.13;;;21.90;74.70;;;;;;4791881;29;20554;-79
2022/07/11 10:44:53;;;;;;;0.10;0.00;;;21.80;74.90;;;;;;4754179;30;20048;-79
2022/07/11 10:47:46;;;;;;;0.90;0.10;;;21.70;75.70;;;;;;4755544;30;20052;-80
2022/07/11 10:50:40;;;;;;;0.20;0.10;;;21.50;75.40;;;;;;4770848;30;20063;-81
2022/07/11 10:53:12;;;;;;;0.10;0.10;;;21.50;75.60;;;;;;4785629;29;20051;-79
2022/07/11 10:56:15;;;;;;;0.05;0.00;;;21.40;75.80;;;;;;4770244;30;20749;-79
2022/07/11 10:59:16;;;;;;;0.20;0.10;;;21.50;75.90;;;;;;4766714;30;20054;-79
2022/07/11 11:02:10;;;;;;;0.30;0.10;;;21.70;75.10;;;;;;4779599;29;20078;-79
2022/07/11 11:08:31;;;;;;;0.28;0.00;;;22.60;73.90;;;;;;4777703;29;20396;-76
2022/07/11 11:11:00;;;;;;;1.17;0.10;;;23.00;73.00;;;;;;4763626;30;20059;-78
2022/07/11 11:13:28;;;;;;;0.10;0.00;;;23.20;72.80;;;;;;4791532;29;20060;-79
2022/07/11 11:16:02;;;;;;;0.38;0.13;;;23.10;72.60;;;;;;4770571;30;20044;-76
2022/07/11 11:18:31;;;;;;;0.30;0.00;;;23.00;72.70;;;;;;4769916;29;20428;-78
2022/07/11 11:21:07;;;;;;;0.13;0.00;;;22.90;72.80;;;;;;4775989;30;20075;-76
2022/07/11 11:23:42;;;;;;;0.10;0.00;;;22.80;73.00;;;;;;4764323;30;20481;-75
2022/07/11 11:26:21;;;;;;;0.15;0.10;;;22.70;73.00;;;;;;4783647;29;20043;-76
2022/07/11 11:28:56;;;;;;;0.10;0.10;;;22.60;72.90;;;;;;4741615;30;20186;-79
2022/07/11 11:31:29;;;;;;;0.90;0.10;;;22.50;73.00;;;;;;4778347;29;20051;-76
2022/07/11 11:33:58;;;;;;;0.10;0.05;;;22.40;73.30;;;;;;4787704;29;20056;-75
2022/07/11 11:36:26;;;;;;;0.10;0.00;;;22.40;73.30;;;;;;4774542;29;20085;-76
2022/07/11 11:38:54;;;;;;;0.10;0.08;;;22.30;73.50;;;;;;4782508;29;20163;-76
2022/07/11 11:41:32;;;;;;;0.20;0.08;;;22.20;73.60;;;;;;4775012;29;20058;-76
2022/07/11 11:44:01;;;;;;;0.40;0.10;;;22.10;73.80;;;;;;4802731;29;20047;-76
2022/07/11 11:46:35;;;;;;;0.75;0.22;;;22.00;74.00;;;;;;4783898;29;20048;-79
2022/07/11 11:49:03;;;;;;;0.82;0.10;;;21.90;74.20;;;;;;4776138;30;20100;-76
2022/07/11 11:51:32;;;;;;;0.35;0.10;;;21.90;74.40;;;;;;4759835;30;20063;-81
2022/07/11 11:54:02;;;;;;;0.73;0.10;;;21.90;74.30;;;;;;4764722;30;20135;-76
2022/07/11 11:56:34;;;;;;;0.10;0.10;;;21.90;74.30;;;;;;4779506;29;20082;-76
2022/07/11 11:59:07;;;;;;;0.10;0.08;;;22.10;74.20;;;;;;4785451;29;20138;-75
2022/07/11 12:01:47;;;;;;;0.20;0.10;;;22.20;73.80;;;;;;4776017;29;20055;-76
2022/07/11 12:04:16;;;;;;;0.63;0.10;;;22.40;73.60;;;;;;4776283;30;20141;-76
2022/07/11 12:06:50;;;;;;;0.10;0.10;;;22.40;73.40;;;;;;4777035;30;20071;-76
2022/07/11 12:09:22;;;;;;;0.20;0.10;;;22.40;73.20;;;;;;4779620;30;20128;-75
2022/07/11 12:14:35;;;;;;;0.63;0.10;;;22.40;73.50;;;;;;4780270;30;19925;-75
2022/07/11 12:17:02;;;;;;;0.10;0.10;;;22.40;73.50;;;;;;4758400;30;20118;-75
2022/07/11 12:19:34;;;;;;;0.15;0.10;;;22.40;73.50;;;;;;4760041;30;20063;-75
2022/07/11 12:22:04;;;;;;;0.10;0.05;;;22.40;73.50;;;;;;4758972;30;20039;-74
2022/07/11 12:24:31;;;;;;;0.20;0.10;;;22.50;73.40;;;;;;4780656;30;20455;-74
2022/07/11 12:26:59;;;;;;;0.00;0.00;;;22.40;73.50;;;;;;4759268;30;20514;-75
2022/07/11 12:29:27;;;;;;;0.30;0.10;;;22.30;73.60;;;;;;4769682;29;20055;-76
2022/07/11 12:32:11;;;;;;;0.25;0.10;;;22.20;73.80;;;;;;4768713;30;20530;-76
2022/07/11 12:34:38;;;;;;;1.05;0.10;;;22.20;73.70;;;;;;4756679;30;20551;-76
2022/07/11 12:37:10;;;;;;;0.45;0.10;;;22.20;73.80;;;;;;4758645;30;20056;-77
2022/07/11 12:39:38;;;;;;;0.10;0.10;;;22.20;73.90;;;;;;4775859;29;20557;-76
2022/07/11 12:42:27;;;;;;;0.10;0.10;;;22.10;73.90;;;;;;4772989;30;20566;-76
2022/07/11 12:44:59;;;;;;;0.10;0.10;;;22.30;73.80;;;;;;4784868;29;20047;-77
2022/07/11 12:47:28;;;;;;;0.57;0.10;;;22.50;73.50;;;;;;4774983;30;20043;-76
2022/07/11 12:49:56;;;;;;;0.10;0.00;;;22.80;72.90;;;;;;4783132;29;20055;-76
2022/07/11 12:52:23;;;;;;;0.20;0.10;;;22.80;72.50;;;;;;4762491;30;20050;-76
2022/07/11 12:55:00;;;;;;;0.00;0.00;;;22.90;72.40;;;;;;4773241;30;20120;-75
2022/07/11 12:57:27;;;;;;;0.00;0.00;;;22.90;72.20;;;;;;4778415;30;20079;-76
2022/07/11 12:59:54;;;;;;;0.10;0.10;;;22.80;72.20;;;;;;4739617;30;20105;-76
2022/07/11 13:02:26;;;;;;;0.43;0.10;;;22.70;72.40;;;;;;4753951;30;20113;-75
2022/07/11 13:04:53;;;;;;;0.10;0.08;;;22.60;72.50;;;;;;4779191;29;20051;-76
2022/07/11 13:10:25;;;;;;;0.32;0.00;;;22.50;72.80;;;;;;4769778;30;20058;-76
2022/07/11 13:12:54;;;;;;;0.20;0.00;;;22.40;72.80;;;;;;4754071;30;20087;-75
2022/07/11 13:15:22;;;;;;;0.08;0.00;;;22.40;72.90;;;;;;4790560;29;20058;-76
2022/07/11 13:17:54;;;;;;;0.00;0.00;;;22.50;72.70;;;;;;4784465;29;20060;-76
2022/07/11 13:20:26;;;;;;;0.22;0.00;;;22.60;73.20;;;;;;4770237;30;20055;-75
2022/07/11 13:22:53;;;;;;;0.00;0.00;;;22.80;72.20;;;;;;4747538;30;20056;-76
2022/07/11 13:25:22;;;;;;;0.10;0.05;;;23.00;71.80;;;;;;4782533;29;20052;-75